sensor_id;sensor_type;location;lat;lon;timestamp;temperature;humidity
9837;DHT22;4957;51.412;6.724;2022-07-30T00:02:17;21.10;54.90
9837;DHT22;4957;51.412;6.724;2022-07-30T00:04:44;21.10;54.70
9837;DHT22;4957;51.412;6.724;2022-07-30T00:07:09;21.00;55.00
9837;DHT22;4957;51.412;6.724;2022-07-30T00:09:35;21.00;55.00
9837;DHT22;4957;51.412;6.724;2022-07-30T00:12:01;20.90;55.30
9837;DHT22;4957;51.412;6.724;2022-07-30T00:14:27;20.90;55.60
9837;DHT22;4957;51.412;6.724;2022-07-30T00:16:53;20.90;55.70
9837;DHT22;4957;51.412;6.724;2022-07-30T00:19:19;20.80;55.50
9837;DHT22;4957;51.412;6.724;2022-07-30T00:21:45;20.80;55.50
9837;DHT22;4957;51.412;6.724;2022-07-30T00:24:11;20.80;55.50
9837;DHT22;4957;51.412;6.724;2022-07-30T00:26:37;20.80;55.60
9837;DHT22;4957;51.412;6.724;2022-07-30T00:29:03;20.70;55.40
9837;DHT22;4957;51.412;6.724;2022-07-30T00:31:29;20.70;55.60
9837;DHT22;4957;51.412;6.724;2022-07-30T00:33:55;20.60;55.50
9837;DHT22;4957;51.412;6.724;2022-07-30T00:36:21;20.60;55.80
9837;DHT22;4957;51.412;6.724;2022-07-30T00:38:47;20.50;55.70
9837;DHT22;4957;51.412;6.724;2022-07-30T00:41:13;20.50;55.80
9837;DHT22;4957;51.412;6.724;2022-07-30T00:43:38;20.50;55.90
9837;DHT22;4957;51.412;6.724;2022-07-30T00:46:04;20.40;55.80
9837;DHT22;4957;51.412;6.724;2022-07-30T00:48:30;20.40;55.80
9837;DHT22;4957;51.412;6.724;2022-07-30T00:50:55;20.30;56.20
9837;DHT22;4957;51.412;6.724;2022-07-30T00:53:21;20.30;56.30
9837;DHT22;4957;51.412;6.724;2022-07-30T00:55:47;20.20;56.00
9837;DHT22;4957;51.412;6.724;2022-07-30T00:58:12;20.20;56.60
9837;DHT22;4957;51.412;6.724;2022-07-30T01:00:38;20.20;56.70
9837;DHT22;4957;51.412;6.724;2022-07-30T01:03:04;20.20;56.60
9837;DHT22;4957;51.412;6.724;2022-07-30T01:05:30;20.10;56.80
9837;DHT22;4957;51.412;6.724;2022-07-30T01:07:56;20.10;57.00
9837;DHT22;4957;51.412;6.724;2022-07-30T01:10:21;20.10;57.20
9837;DHT22;4957;51.412;6.724;2022-07-30T01:12:47;20.00;57.10
9837;DHT22;4957;51.412;6.724;2022-07-30T01:15:13;20.00;57.00
9837;DHT22;4957;51.412;6.724;2022-07-30T01:17:39;20.00;56.90
9837;DHT22;4957;51.412;6.724;2022-07-30T01:20:15;19.90;56.90
9837;DHT22;4957;51.412;6.724;2022-07-30T01:22:49;19.90;57.30
9837;DHT22;4957;51.412;6.724;2022-07-30T01:27:56;19.90;57.20
9837;DHT22;4957;51.412;6.724;2022-07-30T01:30:26;19.90;57.80
9837;DHT22;4957;51.412;6.724;2022-07-30T01:32:54;19.80;57.40
9837;DHT22;4957;51.412;6.724;2022-07-30T01:35:22;19.80;57.70
9837;DHT22;4957;51.412;6.724;2022-07-30T01:37:51;19.80;57.50
9837;DHT22;4957;51.412;6.724;2022-07-30T01:40:18;19.70;57.70
9837;DHT22;4957;51.412;6.724;2022-07-30T01:42:47;19.70;57.90
9837;DHT22;4957;51.412;6.724;2022-07-30T01:45:14;19.70;58.00
9837;DHT22;4957;51.412;6.724;2022-07-30T01:47:42;19.60;57.90
9837;DHT22;4957;51.412;6.724;2022-07-30T01:50:11;19.60;58.20
9837;DHT22;4957;51.412;6.724;2022-07-30T01:52:45;19.60;58.20
9837;DHT22;4957;51.412;6.724;2022-07-30T01:55:14;19.50;58.10
9837;DHT22;4957;51.412;6.724;2022-07-30T01:57:41;19.50;58.10
9837;DHT22;4957;51.412;6.724;2022-07-30T02:00:09;19.50;58.50
9837;DHT22;4957;51.412;6.724;2022-07-30T02:02:36;19.40;58.50
9837;DHT22;4957;51.412;6.724;2022-07-30T02:05:04;19.40;58.70
9837;DHT22;4957;51.412;6.724;2022-07-30T02:07:58;19.40;58.60
9837;DHT22;4957;51.412;6.724;2022-07-30T02:13:02;19.40;58.50
9837;DHT22;4957;51.412;6.724;2022-07-30T02:18:16;19.20;58.60
9837;DHT22;4957;51.412;6.724;2022-07-30T02:20:50;19.30;59.10
9837;DHT22;4957;51.412;6.724;2022-07-30T02:23:19;19.20;59.00
9837;DHT22;4957;51.412;6.724;2022-07-30T02:25:50;19.20;58.80
9837;DHT22;4957;51.412;6.724;2022-07-30T02:28:18;19.10;58.70
9837;DHT22;4957;51.412;6.724;2022-07-30T02:30:49;19.10;58.80
9837;DHT22;4957;51.412;6.724;2022-07-30T02:33:20;19.00;59.10
9837;DHT22;4957;51.412;6.724;2022-07-30T02:35:48;19.00;59.30
9837;DHT22;4957;51.412;6.724;2022-07-30T02:38:15;19.00;58.90
9837;DHT22;4957;51.412;6.724;2022-07-30T02:40:42;19.00;59.10
9837;DHT22;4957;51.412;6.724;2022-07-30T02:43:09;19.00;59.20
9837;DHT22;4957;51.412;6.724;2022-07-30T02:45:36;18.90;59.20
9837;DHT22;4957;51.412;6.724;2022-07-30T02:48:04;18.90;59.00
9837;DHT22;4957;51.412;6.724;2022-07-30T02:50:34;18.90;59.00
9837;DHT22;4957;51.412;6.724;2022-07-30T02:53:02;18.80;58.60
9837;DHT22;4957;51.412;6.724;2022-07-30T02:55:31;18.80;58.80
9837;DHT22;4957;51.412;6.724;2022-07-30T02:58:00;18.70;59.10
9837;DHT22;4957;51.412;6.724;2022-07-30T03:00:27;18.60;58.90
9837;DHT22;4957;51.412;6.724;2022-07-30T03:02:55;18.60;59.30
9837;DHT22;4957;51.412;6.724;2022-07-30T03:05:22;18.60;59.30
9837;DHT22;4957;51.412;6.724;2022-07-30T03:07:50;18.60;59.40
9837;DHT22;4957;51.412;6.724;2022-07-30T03:10:16;18.60;59.30
9837;DHT22;4957;51.412;6.724;2022-07-30T03:12:44;18.50;59.30
9837;DHT22;4957;51.412;6.724;2022-07-30T03:15:11;18.50;59.50
9837;DHT22;4957;51.412;6.724;2022-07-30T03:17:41;18.50;59.00
9837;DHT22;4957;51.412;6.724;2022-07-30T03:20:10;18.40;59.50
9837;DHT22;4957;51.412;6.724;2022-07-30T03:22:41;18.30;59.60
9837;DHT22;4957;51.412;6.724;2022-07-30T03:25:09;18.30;60.10
9837;DHT22;4957;51.412;6.724;2022-07-30T03:27:38;18.30;59.90
9837;DHT22;4957;51.412;6.724;2022-07-30T03:30:05;18.30;60.50
9837;DHT22;4957;51.412;6.724;2022-07-30T03:32:32;18.30;60.50
9837;DHT22;4957;51.412;6.724;2022-07-30T03:34:59;18.20;60.90
9837;DHT22;4957;51.412;6.724;2022-07-30T03:37:26;18.30;60.70
9837;DHT22;4957;51.412;6.724;2022-07-30T03:39:53;18.20;61.30
9837;DHT22;4957;51.412;6.724;2022-07-30T03:42:20;18.20;61.90
9837;DHT22;4957;51.412;6.724;2022-07-30T03:44:47;18.20;62.40
9837;DHT22;4957;51.412;6.724;2022-07-30T03:47:13;18.20;61.90
9837;DHT22;4957;51.412;6.724;2022-07-30T03:49:40;18.20;62.40
9837;DHT22;4957;51.412;6.724;2022-07-30T03:52:07;18.20;62.40
9837;DHT22;4957;51.412;6.724;2022-07-30T03:54:33;18.20;62.40
9837;DHT22;4957;51.412;6.724;2022-07-30T03:57:00;18.20;62.60
9837;DHT22;4957;51.412;6.724;2022-07-30T03:59:27;18.20;62.40
9837;DHT22;4957;51.412;6.724;2022-07-30T04:01:53;18.10;62.60
9837;DHT22;4957;51.412;6.724;2022-07-30T04:04:19;18.10;63.00
9837;DHT22;4957;51.412;6.724;2022-07-30T04:06:44;18.10;62.30
9837;DHT22;4957;51.412;6.724;2022-07-30T04:09:11;18.10;62.50
9837;DHT22;4957;51.412;6.724;2022-07-30T04:11:38;18.00;61.70
9837;DHT22;4957;51.412;6.724;2022-07-30T04:14:04;18.00;62.20
9837;DHT22;4957;51.412;6.724;2022-07-30T04:16:50;18.00;61.60
9837;DHT22;4957;51.412;6.724;2022-07-30T04:19:23;18.00;63.10
9837;DHT22;4957;51.412;6.724;2022-07-30T04:21:51;17.90;62.30
9837;DHT22;4957;51.412;6.724;2022-07-30T04:24:19;17.90;62.70
9837;DHT22;4957;51.412;6.724;2022-07-30T04:26:46;17.90;63.10
9837;DHT22;4957;51.412;6.724;2022-07-30T04:29:13;17.90;63.40
9837;DHT22;4957;51.412;6.724;2022-07-30T04:31:40;17.90;63.70
9837;DHT22;4957;51.412;6.724;2022-07-30T04:34:05;17.90;63.80
9837;DHT22;4957;51.412;6.724;2022-07-30T04:36:32;17.80;63.50
9837;DHT22;4957;51.412;6.724;2022-07-30T04:38:58;17.80;63.90
9837;DHT22;4957;51.412;6.724;2022-07-30T04:41:24;17.90;64.10
9837;DHT22;4957;51.412;6.724;2022-07-30T04:43:51;17.80;65.20
9837;DHT22;4957;51.412;6.724;2022-07-30T04:46:17;17.80;64.90
9837;DHT22;4957;51.412;6.724;2022-07-30T04:48:43;17.80;65.20
9837;DHT22;4957;51.412;6.724;2022-07-30T04:51:13;17.80;65.60
9837;DHT22;4957;51.412;6.724;2022-07-30T04:53:40;17.80;66.40
9837;DHT22;4957;51.412;6.724;2022-07-30T04:56:06;17.80;65.40
9837;DHT22;4957;51.412;6.724;2022-07-30T04:58:33;17.80;66.70
9837;DHT22;4957;51.412;6.724;2022-07-30T05:01:00;17.80;66.50
9837;DHT22;4957;51.412;6.724;2022-07-30T05:03:28;17.80;65.30
9837;DHT22;4957;51.412;6.724;2022-07-30T05:05:56;17.90;65.20
9837;DHT22;4957;51.412;6.724;2022-07-30T05:08:23;17.90;67.00
9837;DHT22;4957;51.412;6.724;2022-07-30T05:10:50;17.90;66.80
9837;DHT22;4957;51.412;6.724;2022-07-30T05:13:15;17.90;65.90
9837;DHT22;4957;51.412;6.724;2022-07-30T05:15:41;17.90;66.70
9837;DHT22;4957;51.412;6.724;2022-07-30T05:18:09;17.90;65.80
9837;DHT22;4957;51.412;6.724;2022-07-30T05:20:36;18.00;66.90
9837;DHT22;4957;51.412;6.724;2022-07-30T05:23:02;18.00;67.10
9837;DHT22;4957;51.412;6.724;2022-07-30T05:25:28;18.00;66.80
9837;DHT22;4957;51.412;6.724;2022-07-30T05:27:53;18.10;67.00
9837;DHT22;4957;51.412;6.724;2022-07-30T05:30:21;18.10;66.70
9837;DHT22;4957;51.412;6.724;2022-07-30T05:32:47;18.10;66.60
9837;DHT22;4957;51.412;6.724;2022-07-30T05:35:12;18.10;66.20
9837;DHT22;4957;51.412;6.724;2022-07-30T05:37:38;18.10;67.10
9837;DHT22;4957;51.412;6.724;2022-07-30T05:40:04;18.20;67.70
9837;DHT22;4957;51.412;6.724;2022-07-30T05:42:30;18.20;68.60
9837;DHT22;4957;51.412;6.724;2022-07-30T05:44:56;18.30;68.70
9837;DHT22;4957;51.412;6.724;2022-07-30T05:47:21;18.30;68.80
9837;DHT22;4957;51.412;6.724;2022-07-30T05:49:47;18.30;68.70
9837;DHT22;4957;51.412;6.724;2022-07-30T05:52:13;18.30;67.20
9837;DHT22;4957;51.412;6.724;2022-07-30T05:54:38;18.30;68.60
9837;DHT22;4957;51.412;6.724;2022-07-30T05:57:04;18.40;68.80
9837;DHT22;4957;51.412;6.724;2022-07-30T05:59:30;18.40;66.70
9837;DHT22;4957;51.412;6.724;2022-07-30T06:01:55;18.40;67.40
9837;DHT22;4957;51.412;6.724;2022-07-30T06:04:21;18.40;66.80
9837;DHT22;4957;51.412;6.724;2022-07-30T06:06:47;18.40;66.90
9837;DHT22;4957;51.412;6.724;2022-07-30T06:09:13;18.50;68.70
9837;DHT22;4957;51.412;6.724;2022-07-30T06:11:39;18.50;68.90
9837;DHT22;4957;51.412;6.724;2022-07-30T06:14:05;18.50;69.00
9837;DHT22;4957;51.412;6.724;2022-07-30T06:16:30;18.50;69.50
9837;DHT22;4957;51.412;6.724;2022-07-30T06:18:56;18.50;70.10
9837;DHT22;4957;51.412;6.724;2022-07-30T06:21:22;18.60;69.00
9837;DHT22;4957;51.412;6.724;2022-07-30T06:23:47;18.60;70.20
9837;DHT22;4957;51.412;6.724;2022-07-30T06:26:14;18.60;70.50
9837;DHT22;4957;51.412;6.724;2022-07-30T06:28:39;18.60;70.60
9837;DHT22;4957;51.412;6.724;2022-07-30T06:31:06;18.70;70.80
9837;DHT22;4957;51.412;6.724;2022-07-30T06:33:32;18.70;69.80
9837;DHT22;4957;51.412;6.724;2022-07-30T06:35:58;18.70;70.30
9837;DHT22;4957;51.412;6.724;2022-07-30T06:38:23;18.70;70.60
9837;DHT22;4957;51.412;6.724;2022-07-30T06:40:49;18.80;69.30
9837;DHT22;4957;51.412;6.724;2022-07-30T06:43:15;18.70;68.20
9837;DHT22;4957;51.412;6.724;2022-07-30T06:45:40;18.80;70.20
9837;DHT22;4957;51.412;6.724;2022-07-30T06:48:06;18.80;70.30
9837;DHT22;4957;51.412;6.724;2022-07-30T06:50:32;18.90;71.40
9837;DHT22;4957;51.412;6.724;2022-07-30T06:52:59;18.90;70.90
9837;DHT22;4957;51.412;6.724;2022-07-30T06:55:25;18.90;69.40
9837;DHT22;4957;51.412;6.724;2022-07-30T06:57:51;18.90;69.00
9837;DHT22;4957;51.412;6.724;2022-07-30T07:00:16;19.00;69.80
9837;DHT22;4957;51.412;6.724;2022-07-30T07:02:42;19.10;69.60
9837;DHT22;4957;51.412;6.724;2022-07-30T07:05:08;19.10;70.50
9837;DHT22;4957;51.412;6.724;2022-07-30T07:07:34;19.20;70.70
9837;DHT22;4957;51.412;6.724;2022-07-30T07:10:00;19.30;71.40
9837;DHT22;4957;51.412;6.724;2022-07-30T07:12:26;19.30;71.60
9837;DHT22;4957;51.412;6.724;2022-07-30T07:14:51;19.50;71.80
9837;DHT22;4957;51.412;6.724;2022-07-30T07:17:17;19.60;72.00
9837;DHT22;4957;51.412;6.724;2022-07-30T07:19:43;19.80;72.00
9837;DHT22;4957;51.412;6.724;2022-07-30T07:22:08;19.90;72.00
9837;DHT22;4957;51.412;6.724;2022-07-30T07:24:34;20.00;71.40
9837;DHT22;4957;51.412;6.724;2022-07-30T07:27:00;20.20;71.70
9837;DHT22;4957;51.412;6.724;2022-07-30T07:29:25;20.40;71.70
9837;DHT22;4957;51.412;6.724;2022-07-30T07:31:51;20.60;68.50
9837;DHT22;4957;51.412;6.724;2022-07-30T07:34:17;20.70;68.10
9837;DHT22;4957;51.412;6.724;2022-07-30T07:36:43;20.90;68.50
9837;DHT22;4957;51.412;6.724;2022-07-30T07:39:09;21.10;67.70
9837;DHT22;4957;51.412;6.724;2022-07-30T07:41:38;21.30;67.90
9837;DHT22;4957;51.412;6.724;2022-07-30T07:44:04;21.50;67.30
9837;DHT22;4957;51.412;6.724;2022-07-30T07:46:31;21.70;66.90
9837;DHT22;4957;51.412;6.724;2022-07-30T07:48:57;21.90;66.10
9837;DHT22;4957;51.412;6.724;2022-07-30T07:51:22;22.10;66.20
9837;DHT22;4957;51.412;6.724;2022-07-30T07:53:48;22.30;65.70
9837;DHT22;4957;51.412;6.724;2022-07-30T07:56:14;22.60;65.60
9837;DHT22;4957;51.412;6.724;2022-07-30T07:58:40;22.80;65.10
9837;DHT22;4957;51.412;6.724;2022-07-30T08:01:05;23.10;64.10
9837;DHT22;4957;51.412;6.724;2022-07-30T08:03:31;23.30;63.20
9837;DHT22;4957;51.412;6.724;2022-07-30T08:05:57;23.50;63.20
9837;DHT22;4957;51.412;6.724;2022-07-30T08:08:23;23.80;62.20
9837;DHT22;4957;51.412;6.724;2022-07-30T08:10:49;24.00;60.70
9837;DHT22;4957;51.412;6.724;2022-07-30T08:13:15;24.20;60.50
9837;DHT22;4957;51.412;6.724;2022-07-30T08:15:41;24.40;59.80
9837;DHT22;4957;51.412;6.724;2022-07-30T08:18:07;24.60;59.40
9837;DHT22;4957;51.412;6.724;2022-07-30T08:20:33;24.80;59.20
9837;DHT22;4957;51.412;6.724;2022-07-30T08:23:00;25.00;58.60
9837;DHT22;4957;51.412;6.724;2022-07-30T08:25:26;25.30;58.20
9837;DHT22;4957;51.412;6.724;2022-07-30T08:27:53;25.50;57.50
9837;DHT22;4957;51.412;6.724;2022-07-30T08:30:18;25.70;57.20
9837;DHT22;4957;51.412;6.724;2022-07-30T08:32:44;26.00;56.70
9837;DHT22;4957;51.412;6.724;2022-07-30T08:35:10;26.20;56.10
9837;DHT22;4957;51.412;6.724;2022-07-30T08:37:36;26.40;55.90
9837;DHT22;4957;51.412;6.724;2022-07-30T08:40:03;26.70;55.40
9837;DHT22;4957;51.412;6.724;2022-07-30T08:42:30;26.90;54.70
9837;DHT22;4957;51.412;6.724;2022-07-30T08:44:59;27.10;54.30
9837;DHT22;4957;51.412;6.724;2022-07-30T08:47:35;27.30;53.80
9837;DHT22;4957;51.412;6.724;2022-07-30T08:50:06;27.60;53.20
9837;DHT22;4957;51.412;6.724;2022-07-30T08:52:35;27.80;52.70
9837;DHT22;4957;51.412;6.724;2022-07-30T08:55:03;28.00;52.10
9837;DHT22;4957;51.412;6.724;2022-07-30T08:57:30;28.20;51.60
9837;DHT22;4957;51.412;6.724;2022-07-30T09:00:00;28.40;51.00
9837;DHT22;4957;51.412;6.724;2022-07-30T09:02:26;28.60;50.20
9837;DHT22;4957;51.412;6.724;2022-07-30T09:04:54;28.80;49.70
9837;DHT22;4957;51.412;6.724;2022-07-30T09:07:20;29.00;49.00
9837;DHT22;4957;51.412;6.724;2022-07-30T09:09:45;29.20;48.50
9837;DHT22;4957;51.412;6.724;2022-07-30T09:13:03;29.40;47.90
9837;DHT22;4957;51.412;6.724;2022-07-30T09:15:21;29.60;47.00
9837;DHT22;4957;51.412;6.724;2022-07-30T09:17:58;29.90;47.00
9837;DHT22;4957;51.412;6.724;2022-07-30T09:20:27;30.00;46.10
9837;DHT22;4957;51.412;6.724;2022-07-30T09:22:55;30.20;45.80
9837;DHT22;4957;51.412;6.724;2022-07-30T09:25:40;30.30;45.10
9837;DHT22;4957;51.412;6.724;2022-07-30T09:28:07;30.50;44.50
9837;DHT22;4957;51.412;6.724;2022-07-30T09:30:49;30.60;44.70
9837;DHT22;4957;51.412;6.724;2022-07-30T09:33:37;30.70;43.70
9837;DHT22;4957;51.412;6.724;2022-07-30T09:36:07;30.90;43.10
9837;DHT22;4957;51.412;6.724;2022-07-30T09:38:50;31.00;43.20
9837;DHT22;4957;51.412;6.724;2022-07-30T09:41:18;31.20;42.20
9837;DHT22;4957;51.412;6.724;2022-07-30T09:43:50;31.40;42.30
9837;DHT22;4957;51.412;6.724;2022-07-30T09:46:16;31.50;41.40
9837;DHT22;4957;51.412;6.724;2022-07-30T09:48:43;31.70;41.10
9837;DHT22;4957;51.412;6.724;2022-07-30T09:51:11;31.90;40.90
9837;DHT22;4957;51.412;6.724;2022-07-30T09:53:53;32.10;40.50
9837;DHT22;4957;51.412;6.724;2022-07-30T09:56:23;32.30;39.30
9837;DHT22;4957;51.412;6.724;2022-07-30T09:58:49;32.40;39.30
9837;DHT22;4957;51.412;6.724;2022-07-30T10:01:15;32.50;39.60
9837;DHT22;4957;51.412;6.724;2022-07-30T10:03:41;32.70;39.20
9837;DHT22;4957;51.412;6.724;2022-07-30T10:06:08;32.80;38.30
9837;DHT22;4957;51.412;6.724;2022-07-30T10:08:42;33.00;38.30
9837;DHT22;4957;51.412;6.724;2022-07-30T10:11:22;33.20;36.90
9837;DHT22;4957;51.412;6.724;2022-07-30T10:13:54;33.40;36.60
9837;DHT22;4957;51.412;6.724;2022-07-30T10:16:20;33.60;36.30
9837;DHT22;4957;51.412;6.724;2022-07-30T10:18:46;33.80;35.90
9837;DHT22;4957;51.412;6.724;2022-07-30T10:21:12;34.00;35.30
9837;DHT22;4957;51.412;6.724;2022-07-30T10:23:39;34.20;35.20
9837;DHT22;4957;51.412;6.724;2022-07-30T10:26:05;34.40;34.50
9837;DHT22;4957;51.412;6.724;2022-07-30T10:28:33;34.60;34.20
9837;DHT22;4957;51.412;6.724;2022-07-30T10:30:59;34.70;33.90
9837;DHT22;4957;51.412;6.724;2022-07-30T10:33:28;35.00;33.50
9837;DHT22;4957;51.412;6.724;2022-07-30T10:35:55;35.20;33.20
9837;DHT22;4957;51.412;6.724;2022-07-30T10:38:26;35.30;33.10
9837;DHT22;4957;51.412;6.724;2022-07-30T10:41:07;35.50;32.70
9837;DHT22;4957;51.412;6.724;2022-07-30T10:49:16;36.10;31.10
9837;DHT22;4957;51.412;6.724;2022-07-30T10:51:49;36.30;30.40
9837;DHT22;4957;51.412;6.724;2022-07-30T10:54:39;36.50;30.80
9837;DHT22;4957;51.412;6.724;2022-07-30T11:02:18;36.90;30.00
9837;DHT22;4957;51.412;6.724;2022-07-30T11:04:44;37.00;30.10
9837;DHT22;4957;51.412;6.724;2022-07-30T11:09:49;37.30;29.80
9837;DHT22;4957;51.412;6.724;2022-07-30T11:15:11;37.50;29.40
9837;DHT22;4957;51.412;6.724;2022-07-30T11:20:25;37.70;28.50
9837;DHT22;4957;51.412;6.724;2022-07-30T11:22:51;37.90;28.90
9837;DHT22;4957;51.412;6.724;2022-07-30T11:27:49;38.10;28.00
9837;DHT22;4957;51.412;6.724;2022-07-30T11:32:42;38.40;28.20
9837;DHT22;4957;51.412;6.724;2022-07-30T11:38:12;38.60;27.80
9837;DHT22;4957;51.412;6.724;2022-07-30T11:45:44;38.80;27.40
9837;DHT22;4957;51.412;6.724;2022-07-30T11:48:12;38.90;26.90
9837;DHT22;4957;51.412;6.724;2022-07-30T11:50:38;39.00;26.40
9837;DHT22;4957;51.412;6.724;2022-07-30T11:53:06;39.00;26.20
9837;DHT22;4957;51.412;6.724;2022-07-30T11:55:41;39.10;25.90
9837;DHT22;4957;51.412;6.724;2022-07-30T11:58:09;39.10;25.60
9837;DHT22;4957;51.412;6.724;2022-07-30T12:00:42;39.20;26.20
9837;DHT22;4957;51.412;6.724;2022-07-30T12:03:19;39.30;25.10
9837;DHT22;4957;51.412;6.724;2022-07-30T12:05:46;39.30;24.90
9837;DHT22;4957;51.412;6.724;2022-07-30T12:08:12;39.40;25.10
9837;DHT22;4957;51.412;6.724;2022-07-30T12:10:39;39.40;25.10
9837;DHT22;4957;51.412;6.724;2022-07-30T12:13:13;39.40;24.90
9837;DHT22;4957;51.412;6.724;2022-07-30T12:15:45;39.40;24.50
9837;DHT22;4957;51.412;6.724;2022-07-30T12:18:12;39.30;24.50
9837;DHT22;4957;51.412;6.724;2022-07-30T12:20:41;39.30;24.90
9837;DHT22;4957;51.412;6.724;2022-07-30T12:23:11;39.30;25.00
9837;DHT22;4957;51.412;6.724;2022-07-30T12:25:39;39.20;24.90
9837;DHT22;4957;51.412;6.724;2022-07-30T12:28:05;39.20;25.40
9837;DHT22;4957;51.412;6.724;2022-07-30T12:30:31;39.10;25.10
9837;DHT22;4957;51.412;6.724;2022-07-30T12:32:57;39.10;25.20
9837;DHT22;4957;51.412;6.724;2022-07-30T12:35:47;39.20;25.10
9837;DHT22;4957;51.412;6.724;2022-07-30T12:38:14;39.10;24.80
9837;DHT22;4957;51.412;6.724;2022-07-30T12:43:15;39.20;24.90
9837;DHT22;4957;51.412;6.724;2022-07-30T12:45:41;39.30;25.30
9837;DHT22;4957;51.412;6.724;2022-07-30T12:48:11;39.20;25.40
9837;DHT22;4957;51.412;6.724;2022-07-30T12:50:37;39.30;25.50
9837;DHT22;4957;51.412;6.724;2022-07-30T12:53:03;39.40;25.80
9837;DHT22;4957;51.412;6.724;2022-07-30T12:55:30;39.30;25.70
9837;DHT22;4957;51.412;6.724;2022-07-30T12:58:05;39.30;25.40
9837;DHT22;4957;51.412;6.724;2022-07-30T13:00:33;39.30;25.40
9837;DHT22;4957;51.412;6.724;2022-07-30T13:03:21;39.20;25.90
9837;DHT22;4957;51.412;6.724;2022-07-30T13:05:51;39.20;25.80
9837;DHT22;4957;51.412;6.724;2022-07-30T13:08:17;39.10;26.20
9837;DHT22;4957;51.412;6.724;2022-07-30T13:10:56;39.10;25.70
9837;DHT22;4957;51.412;6.724;2022-07-30T13:13:24;39.00;25.30
9837;DHT22;4957;51.412;6.724;2022-07-30T13:16:01;39.00;25.90
9837;DHT22;4957;51.412;6.724;2022-07-30T13:18:31;38.90;26.00
9837;DHT22;4957;51.412;6.724;2022-07-30T13:20:58;38.80;25.70
9837;DHT22;4957;51.412;6.724;2022-07-30T13:23:25;38.80;25.80
9837;DHT22;4957;51.412;6.724;2022-07-30T13:25:52;38.70;25.60
9837;DHT22;4957;51.412;6.724;2022-07-30T13:28:18;38.60;26.40
9837;DHT22;4957;51.412;6.724;2022-07-30T13:30:44;38.60;26.20
9837;DHT22;4957;51.412;6.724;2022-07-30T13:33:10;38.50;26.30
9837;DHT22;4957;51.412;6.724;2022-07-30T13:35:36;38.50;26.20
9837;DHT22;4957;51.412;6.724;2022-07-30T13:38:02;38.40;25.80
9837;DHT22;4957;51.412;6.724;2022-07-30T13:40:30;38.30;26.00
9837;DHT22;4957;51.412;6.724;2022-07-30T13:42:57;38.20;25.90
9837;DHT22;4957;51.412;6.724;2022-07-30T13:45:23;38.00;26.20
9837;DHT22;4957;51.412;6.724;2022-07-30T13:47:48;37.90;26.50
9837;DHT22;4957;51.412;6.724;2022-07-30T13:50:14;37.80;26.40
9837;DHT22;4957;51.412;6.724;2022-07-30T13:52:40;37.70;26.80
9837;DHT22;4957;51.412;6.724;2022-07-30T13:55:05;37.60;27.20
9837;DHT22;4957;51.412;6.724;2022-07-30T13:57:31;37.50;26.80
9837;DHT22;4957;51.412;6.724;2022-07-30T13:59:57;37.40;26.80
9837;DHT22;4957;51.412;6.724;2022-07-30T14:02:23;37.20;26.90
9837;DHT22;4957;51.412;6.724;2022-07-30T14:04:48;37.20;27.30
9837;DHT22;4957;51.412;6.724;2022-07-30T14:07:14;37.00;27.40
9837;DHT22;4957;51.412;6.724;2022-07-30T14:09:40;36.90;27.00
9837;DHT22;4957;51.412;6.724;2022-07-30T14:12:06;36.80;27.40
9837;DHT22;4957;51.412;6.724;2022-07-30T14:14:32;36.70;27.30
9837;DHT22;4957;51.412;6.724;2022-07-30T14:16:57;36.60;27.30
9837;DHT22;4957;51.412;6.724;2022-07-30T14:19:23;36.40;26.80
9837;DHT22;4957;51.412;6.724;2022-07-30T14:21:49;36.30;27.10
9837;DHT22;4957;51.412;6.724;2022-07-30T14:24:14;36.20;27.70
9837;DHT22;4957;51.412;6.724;2022-07-30T14:26:43;36.10;27.70
9837;DHT22;4957;51.412;6.724;2022-07-30T14:29:09;35.90;27.50
9837;DHT22;4957;51.412;6.724;2022-07-30T14:31:36;35.80;28.00
9837;DHT22;4957;51.412;6.724;2022-07-30T14:34:02;35.70;27.80
9837;DHT22;4957;51.412;6.724;2022-07-30T14:36:28;35.60;28.00
9837;DHT22;4957;51.412;6.724;2022-07-30T14:38:58;35.50;28.60
9837;DHT22;4957;51.412;6.724;2022-07-30T14:41:25;35.50;28.50
9837;DHT22;4957;51.412;6.724;2022-07-30T14:43:51;35.40;28.70
9837;DHT22;4957;51.412;6.724;2022-07-30T14:46:18;35.30;28.50
9837;DHT22;4957;51.412;6.724;2022-07-30T14:48:44;35.20;29.00
9837;DHT22;4957;51.412;6.724;2022-07-30T14:51:10;35.10;29.10
9837;DHT22;4957;51.412;6.724;2022-07-30T14:53:35;35.10;28.70
9837;DHT22;4957;51.412;6.724;2022-07-30T14:56:01;35.00;28.80
9837;DHT22;4957;51.412;6.724;2022-07-30T14:58:27;34.80;29.10
9837;DHT22;4957;51.412;6.724;2022-07-30T15:00:53;34.70;28.90
9837;DHT22;4957;51.412;6.724;2022-07-30T15:03:18;34.70;29.20
9837;DHT22;4957;51.412;6.724;2022-07-30T15:05:44;34.60;29.10
9837;DHT22;4957;51.412;6.724;2022-07-30T15:08:10;34.50;28.90
9837;DHT22;4957;51.412;6.724;2022-07-30T15:10:35;34.40;29.70
9837;DHT22;4957;51.412;6.724;2022-07-30T15:13:01;34.30;29.60
9837;DHT22;4957;51.412;6.724;2022-07-30T15:15:27;34.30;29.40
9837;DHT22;4957;51.412;6.724;2022-07-30T15:17:52;34.30;29.40
9837;DHT22;4957;51.412;6.724;2022-07-30T15:20:18;34.20;29.50
9837;DHT22;4957;51.412;6.724;2022-07-30T15:22:44;34.10;29.40
9837;DHT22;4957;51.412;6.724;2022-07-30T15:25:10;34.10;29.50
9837;DHT22;4957;51.412;6.724;2022-07-30T15:27:35;34.00;30.00
9837;DHT22;4957;51.412;6.724;2022-07-30T15:30:02;34.00;29.80
9837;DHT22;4957;51.412;6.724;2022-07-30T15:32:28;34.00;29.90
9837;DHT22;4957;51.412;6.724;2022-07-30T15:34:54;34.00;29.80
9837;DHT22;4957;51.412;6.724;2022-07-30T15:37:20;34.00;29.50
9837;DHT22;4957;51.412;6.724;2022-07-30T15:39:46;33.90;29.40
9837;DHT22;4957;51.412;6.724;2022-07-30T15:42:11;33.90;29.90
9837;DHT22;4957;51.412;6.724;2022-07-30T15:44:37;33.90;30.00
9837;DHT22;4957;51.412;6.724;2022-07-30T15:47:03;33.80;29.70
9837;DHT22;4957;51.412;6.724;2022-07-30T15:49:29;33.80;30.00
9837;DHT22;4957;51.412;6.724;2022-07-30T15:51:56;33.70;30.00
9837;DHT22;4957;51.412;6.724;2022-07-30T15:54:22;33.70;30.20
9837;DHT22;4957;51.412;6.724;2022-07-30T15:56:51;33.70;30.20
9837;DHT22;4957;51.412;6.724;2022-07-30T15:59:18;33.60;30.20
9837;DHT22;4957;51.412;6.724;2022-07-30T16:01:45;33.60;30.30
9837;DHT22;4957;51.412;6.724;2022-07-30T16:04:12;33.60;30.40
9837;DHT22;4957;51.412;6.724;2022-07-30T16:06:38;33.50;30.60
9837;DHT22;4957;51.412;6.724;2022-07-30T16:09:04;33.50;30.40
9837;DHT22;4957;51.412;6.724;2022-07-30T16:11:31;33.50;30.60
9837;DHT22;4957;51.412;6.724;2022-07-30T16:13:57;33.50;30.40
9837;DHT22;4957;51.412;6.724;2022-07-30T16:16:23;33.50;30.40
9837;DHT22;4957;51.412;6.724;2022-07-30T16:18:48;33.40;30.40
9837;DHT22;4957;51.412;6.724;2022-07-30T16:21:14;33.30;30.50
9837;DHT22;4957;51.412;6.724;2022-07-30T16:23:40;33.30;30.80
9837;DHT22;4957;51.412;6.724;2022-07-30T16:26:08;33.20;31.00
9837;DHT22;4957;51.412;6.724;2022-07-30T16:28:34;33.30;31.00
9837;DHT22;4957;51.412;6.724;2022-07-30T16:30:59;33.20;31.10
9837;DHT22;4957;51.412;6.724;2022-07-30T16:33:25;33.10;31.10
9837;DHT22;4957;51.412;6.724;2022-07-30T16:35:51;33.10;31.20
9837;DHT22;4957;51.412;6.724;2022-07-30T16:38:20;33.00;31.50
9837;DHT22;4957;51.412;6.724;2022-07-30T16:40:48;33.00;31.50
9837;DHT22;4957;51.412;6.724;2022-07-30T16:43:14;32.90;31.50
9837;DHT22;4957;51.412;6.724;2022-07-30T16:45:40;32.80;31.70
9837;DHT22;4957;51.412;6.724;2022-07-30T16:48:06;32.80;31.70